sensor_id;sensor_type;location;lat;lon;timestamp;pressure;altitude;pressure_sealevel;temperature;humidity
61478;BME280;47345;52.334;10.392;2023-03-04T00:00:32;101473.20;;;2.87;83.75
61478;BME280;47345;52.334;10.392;2023-03-04T00:03:03;101469.11;;;2.90;83.73
61478;BME280;47345;52.334;10.392;2023-03-04T00:05:35;101468.64;;;2.94;83.63
61478;BME280;47345;52.334;10.392;2023-03-04T00:08:06;101467.02;;;2.96;83.72
61478;BME280;47345;52.334;10.392;2023-03-04T00:10:37;101471.77;;;2.99;83.67
61478;BME280;47345;52.334;10.392;2023-03-04T00:13:08;101464.67;;;3.00;83.67
61478;BME280;47345;52.334;10.392;2023-03-04T00:15:38;101466.11;;;3.02;83.61
61478;BME280;47345;52.334;10.392;2023-03-04T00:18:09;101468.00;;;3.07;83.46
61478;BME280;47345;52.334;10.392;2023-03-04T00:20:40;101467.77;;;3.09;83.46
61478;BME280;47345;52.334;10.392;2023-03-04T00:23:11;101468.13;;;3.12;83.46
61478;BME280;47345;52.334;10.392;2023-03-04T00:25:41;101467.56;;;3.14;83.40
61478;BME280;47345;52.334;10.392;2023-03-04T00:28:12;101465.20;;;3.16;83.34
61478;BME280;47345;52.334;10.392;2023-03-04T00:30:42;101462.64;;;3.18;83.40
61478;BME280;47345;52.334;10.392;2023-03-04T00:33:13;101459.89;;;3.21;83.19
61478;BME280;47345;52.334;10.392;2023-03-04T00:35:43;101459.39;;;3.22;83.36
61478;BME280;47345;52.334;10.392;2023-03-04T00:38:14;101453.95;;;3.24;83.31
61478;BME280;47345;52.334;10.392;2023-03-04T00:40:44;101446.10;;;3.26;83.07
61478;BME280;47345;52.334;10.392;2023-03-04T00:43:14;101442.85;;;3.28;82.86
61478;BME280;47345;52.334;10.392;2023-03-04T00:45:45;101438.31;;;3.30;82.91
61478;BME280;47345;52.334;10.392;2023-03-04T00:48:16;101438.73;;;3.31;82.90
61478;BME280;47345;52.334;10.392;2023-03-04T00:50:46;101439.16;;;3.33;83.03
61478;BME280;47345;52.334;10.392;2023-03-04T00:53:17;101439.52;;;3.35;83.04
61478;BME280;47345;52.334;10.392;2023-03-04T00:55:47;101440.66;;;3.36;82.89
61478;BME280;47345;52.334;10.392;2023-03-04T00:58:18;101432.64;;;3.37;82.93
61478;BME280;47345;52.334;10.392;2023-03-04T01:00:48;101434.61;;;3.39;83.04
61478;BME280;47345;52.334;10.392;2023-03-04T01:03:19;101431.44;;;3.40;83.10
61478;BME280;47345;52.334;10.392;2023-03-04T01:05:49;101427.02;;;3.41;83.07
61478;BME280;47345;52.334;10.392;2023-03-04T01:08:20;101428.93;;;3.42;82.89
61478;BME280;47345;52.334;10.392;2023-03-04T01:10:51;101425.00;;;3.44;82.78
61478;BME280;47345;52.334;10.392;2023-03-04T01:13:22;101424.20;;;3.44;82.96
61478;BME280;47345;52.334;10.392;2023-03-04T01:15:52;101423.18;;;3.46;82.91
61478;BME280;47345;52.334;10.392;2023-03-04T01:18:24;101417.67;;;3.47;82.67
61478;BME280;47345;52.334;10.392;2023-03-04T01:20:54;101420.13;;;3.47;83.03
61478;BME280;47345;52.334;10.392;2023-03-04T01:23:25;101420.02;;;3.49;82.72
61478;BME280;47345;52.334;10.392;2023-03-04T01:25:55;101420.50;;;3.49;82.78
61478;BME280;47345;52.334;10.392;2023-03-04T01:28:26;101421.78;;;3.51;82.72
61478;BME280;47345;52.334;10.392;2023-03-04T01:30:57;101416.46;;;3.52;82.68
61478;BME280;47345;52.334;10.392;2023-03-04T01:33:28;101408.59;;;3.53;82.81
61478;BME280;47345;52.334;10.392;2023-03-04T01:35:59;101406.68;;;3.54;82.71
61478;BME280;47345;52.334;10.392;2023-03-04T01:38:29;101401.87;;;3.56;82.84
61478;BME280;47345;52.334;10.392;2023-03-04T01:41:00;101398.17;;;3.57;82.75
61478;BME280;47345;52.334;10.392;2023-03-04T01:43:31;101393.92;;;3.58;82.40
61478;BME280;47345;52.334;10.392;2023-03-04T01:46:04;101391.73;;;3.60;82.31
61478;BME280;47345;52.334;10.392;2023-03-04T01:48:37;101385.98;;;3.62;82.45
61478;BME280;47345;52.334;10.392;2023-03-04T01:51:13;101382.79;;;3.63;82.42
61478;BME280;47345;52.334;10.392;2023-03-04T01:53:45;101378.16;;;3.64;82.35
61478;BME280;47345;52.334;10.392;2023-03-04T01:56:21;101376.98;;;3.65;82.38
61478;BME280;47345;52.334;10.392;2023-03-04T01:59:09;101369.52;;;3.66;82.46
61478;BME280;47345;52.334;10.392;2023-03-04T02:01:44;101362.35;;;3.67;82.39
61478;BME280;47345;52.334;10.392;2023-03-04T02:04:16;101359.17;;;3.68;82.36
61478;BME280;47345;52.334;10.392;2023-03-04T02:06:49;101360.03;;;3.69;82.36
61478;BME280;47345;52.334;10.392;2023-03-04T02:09:20;101356.30;;;3.70;82.70
61478;BME280;47345;52.334;10.392;2023-03-04T02:11:51;101354.00;;;3.70;82.61
61478;BME280;47345;52.334;10.392;2023-03-04T02:14:22;101354.09;;;3.71;82.49
61478;BME280;47345;52.334;10.392;2023-03-04T02:16:53;101350.89;;;3.72;82.73
61478;BME280;47345;52.334;10.392;2023-03-04T02:19:33;101351.21;;;3.73;82.50
61478;BME280;47345;52.334;10.392;2023-03-04T02:22:06;101345.77;;;3.73;82.66
61478;BME280;47345;52.334;10.392;2023-03-04T02:24:40;101348.79;;;3.75;82.62
61478;BME280;47345;52.334;10.392;2023-03-04T02:27:12;101339.85;;;3.76;82.57
61478;BME280;47345;52.334;10.392;2023-03-04T02:29:43;101338.69;;;3.77;82.78
61478;BME280;47345;52.334;10.392;2023-03-04T02:32:14;101335.20;;;3.77;82.74
61478;BME280;47345;52.334;10.392;2023-03-04T02:34:48;101334.55;;;3.79;82.76
61478;BME280;47345;52.334;10.392;2023-03-04T02:37:19;101328.77;;;3.79;82.85
61478;BME280;47345;52.334;10.392;2023-03-04T02:39:51;101329.63;;;3.80;82.63
61478;BME280;47345;52.334;10.392;2023-03-04T02:42:21;101329.59;;;3.80;82.98
61478;BME280;47345;52.334;10.392;2023-03-04T02:45:01;101326.86;;;3.80;82.80
61478;BME280;47345;52.334;10.392;2023-03-04T02:47:31;101324.73;;;3.81;82.89
61478;BME280;47345;52.334;10.392;2023-03-04T02:50:02;101322.52;;;3.82;83.13
61478;BME280;47345;52.334;10.392;2023-03-04T02:52:33;101322.86;;;3.82;83.12
61478;BME280;47345;52.334;10.392;2023-03-04T02:55:04;101322.43;;;3.83;82.97
61478;BME280;47345;52.334;10.392;2023-03-04T02:57:34;101322.17;;;3.84;83.03
61478;BME280;47345;52.334;10.392;2023-03-04T03:00:07;101325.21;;;3.84;83.19
61478;BME280;47345;52.334;10.392;2023-03-04T03:02:37;101322.02;;;3.86;83.45
61478;BME280;47345;52.334;10.392;2023-03-04T03:05:08;101322.02;;;3.85;83.48
61478;BME280;47345;52.334;10.392;2023-03-04T03:07:38;101321.05;;;3.86;83.52
61478;BME280;47345;52.334;10.392;2023-03-04T03:10:11;101316.58;;;3.86;83.77
61478;BME280;47345;52.334;10.392;2023-03-04T03:12:41;101322.13;;;3.86;83.87
61478;BME280;47345;52.334;10.392;2023-03-04T03:15:12;101318.91;;;3.86;84.01
61478;BME280;47345;52.334;10.392;2023-03-04T03:17:43;101310.52;;;3.85;83.95
61478;BME280;47345;52.334;10.392;2023-03-04T03:20:15;101316.04;;;3.86;84.40
61478;BME280;47345;52.334;10.392;2023-03-04T03:22:46;101313.95;;;3.87;84.20
61478;BME280;47345;52.334;10.392;2023-03-04T03:25:17;101313.19;;;3.87;84.18
61478;BME280;47345;52.334;10.392;2023-03-04T03:27:48;101311.75;;;3.87;84.57
61478;BME280;47345;52.334;10.392;2023-03-04T03:30:18;101309.21;;;3.87;84.73
61478;BME280;47345;52.334;10.392;2023-03-04T03:32:49;101303.06;;;3.88;85.00
61478;BME280;47345;52.334;10.392;2023-03-04T03:35:19;101302.14;;;3.88;84.96
61478;BME280;47345;52.334;10.392;2023-03-04T03:37:50;101302.52;;;3.87;85.07
61478;BME280;47345;52.334;10.392;2023-03-04T03:40:20;101296.40;;;3.87;85.21
61478;BME280;47345;52.334;10.392;2023-03-04T03:42:50;101296.14;;;3.88;85.22
61478;BME280;47345;52.334;10.392;2023-03-04T03:45:21;101301.23;;;3.88;85.22
61478;BME280;47345;52.334;10.392;2023-03-04T03:47:51;101297.55;;;3.87;85.35
61478;BME280;47345;52.334;10.392;2023-03-04T03:50:22;101301.61;;;3.88;85.59
61478;BME280;47345;52.334;10.392;2023-03-04T03:52:52;101299.52;;;3.87;85.73
61478;BME280;47345;52.334;10.392;2023-03-04T03:55:22;101295.17;;;3.87;85.77
61478;BME280;47345;52.334;10.392;2023-03-04T03:57:53;101293.23;;;3.86;85.65
61478;BME280;47345;52.334;10.392;2023-03-04T04:00:23;101292.73;;;3.86;86.04
61478;BME280;47345;52.334;10.392;2023-03-04T04:02:55;101293.99;;;3.86;85.89
61478;BME280;47345;52.334;10.392;2023-03-04T04:05:27;101293.81;;;3.86;86.19
61478;BME280;47345;52.334;10.392;2023-03-04T04:07:58;101287.85;;;3.86;86.11
61478;BME280;47345;52.334;10.392;2023-03-04T04:10:28;101283.58;;;3.85;86.30
61478;BME280;47345;52.334;10.392;2023-03-04T04:12:58;101281.40;;;3.84;86.35
61478;BME280;47345;52.334;10.392;2023-03-04T04:15:29;101276.08;;;3.82;86.60
61478;BME280;47345;52.334;10.392;2023-03-04T04:17:59;101274.16;;;3.82;86.56
61478;BME280;47345;52.334;10.392;2023-03-04T04:20:30;101272.23;;;3.81;86.87
61478;BME280;47345;52.334;10.392;2023-03-04T04:23:00;101264.97;;;3.82;86.75
61478;BME280;47345;52.334;10.392;2023-03-04T04:25:31;101267.80;;;3.83;86.88
61478;BME280;47345;52.334;10.392;2023-03-04T04:28:02;101273.17;;;3.83;86.73
61478;BME280;47345;52.334;10.392;2023-03-04T04:30:33;101269.05;;;3.83;86.97
61478;BME280;47345;52.334;10.392;2023-03-04T04:33:04;101269.32;;;3.83;86.93
61478;BME280;47345;52.334;10.392;2023-03-04T04:35:35;101272.67;;;3.84;87.28
61478;BME280;47345;52.334;10.392;2023-03-04T04:38:07;101270.84;;;3.84;87.10
61478;BME280;47345;52.334;10.392;2023-03-04T04:40:38;101270.98;;;3.85;87.28
61478;BME280;47345;52.334;10.392;2023-03-04T04:43:11;101268.02;;;3.86;87.37
61478;BME280;47345;52.334;10.392;2023-03-04T04:45:41;101271.16;;;3.85;87.58
61478;BME280;47345;52.334;10.392;2023-03-04T04:48:12;101266.95;;;3.86;87.79
61478;BME280;47345;52.334;10.392;2023-03-04T04:50:43;101263.38;;;3.85;87.96
61478;BME280;47345;52.334;10.392;2023-03-04T04:53:13;101257.85;;;3.84;88.11
61478;BME280;47345;52.334;10.392;2023-03-04T04:55:44;101257.40;;;3.86;88.03
61478;BME280;47345;52.334;10.392;2023-03-04T04:58:14;101259.14;;;3.86;88.27
61478;BME280;47345;52.334;10.392;2023-03-04T05:00:44;101255.71;;;3.86;88.45
61478;BME280;47345;52.334;10.392;2023-03-04T05:03:15;101255.04;;;3.86;88.44
61478;BME280;47345;52.334;10.392;2023-03-04T05:05:46;101252.59;;;3.85;88.54
61478;BME280;47345;52.334;10.392;2023-03-04T05:08:17;101256.00;;;3.85;88.70
61478;BME280;47345;52.334;10.392;2023-03-04T05:10:48;101254.76;;;3.85;88.70
61478;BME280;47345;52.334;10.392;2023-03-04T05:13:19;101251.54;;;3.84;88.99
61478;BME280;47345;52.334;10.392;2023-03-04T05:15:51;101249.70;;;3.85;89.26
61478;BME280;47345;52.334;10.392;2023-03-04T05:18:24;101246.45;;;3.83;88.95
61478;BME280;47345;52.334;10.392;2023-03-04T05:20:56;101246.82;;;3.83;89.04
61478;BME280;47345;52.334;10.392;2023-03-04T05:23:28;101247.38;;;3.82;89.15
61478;BME280;47345;52.334;10.392;2023-03-04T05:25:59;101243.98;;;3.83;89.05
61478;BME280;47345;52.334;10.392;2023-03-04T05:28:30;101246.34;;;3.82;89.04
61478;BME280;47345;52.334;10.392;2023-03-04T05:31:01;101242.69;;;3.83;88.85
61478;BME280;47345;52.334;10.392;2023-03-04T05:33:32;101244.19;;;3.84;89.19
61478;BME280;47345;52.334;10.392;2023-03-04T05:36:03;101242.84;;;3.85;88.98
61478;BME280;47345;52.334;10.392;2023-03-04T05:38:34;101238.77;;;3.86;88.96
61478;BME280;47345;52.334;10.392;2023-03-04T05:41:06;101233.79;;;3.87;88.90
61478;BME280;47345;52.334;10.392;2023-03-04T05:43:37;101240.16;;;3.90;89.05
61478;BME280;47345;52.334;10.392;2023-03-04T05:46:13;101242.55;;;3.92;88.91
61478;BME280;47345;52.334;10.392;2023-03-04T05:48:45;101243.89;;;3.93;88.96
61478;BME280;47345;52.334;10.392;2023-03-04T05:51:15;101243.69;;;3.93;89.31
61478;BME280;47345;52.334;10.392;2023-03-04T05:53:46;101244.88;;;3.94;89.44
61478;BME280;47345;52.334;10.392;2023-03-04T05:56:18;101247.21;;;3.94;89.74
61478;BME280;47345;52.334;10.392;2023-03-04T05:58:50;101245.70;;;3.95;89.92
61478;BME280;47345;52.334;10.392;2023-03-04T06:01:20;101246.48;;;3.94;89.88
61478;BME280;47345;52.334;10.392;2023-03-04T06:03:51;101251.02;;;3.94;89.95
61478;BME280;47345;52.334;10.392;2023-03-04T06:06:22;101249.70;;;3.92;89.92
61478;BME280;47345;52.334;10.392;2023-03-04T06:08:52;101248.30;;;3.92;90.08
61478;BME280;47345;52.334;10.392;2023-03-04T06:11:23;101247.23;;;3.92;90.27
61478;BME280;47345;52.334;10.392;2023-03-04T06:13:53;101249.88;;;3.92;90.51
61478;BME280;47345;52.334;10.392;2023-03-04T06:16:24;101250.08;;;3.92;90.68
61478;BME280;47345;52.334;10.392;2023-03-04T06:18:54;101245.11;;;3.91;91.01
61478;BME280;47345;52.334;10.392;2023-03-04T06:21:25;101244.47;;;3.91;91.09
61478;BME280;47345;52.334;10.392;2023-03-04T06:23:56;101248.29;;;3.90;90.99
61478;BME280;47345;52.334;10.392;2023-03-04T06:26:26;101245.95;;;3.90;91.23
61478;BME280;47345;52.334;10.392;2023-03-04T06:28:57;101249.64;;;3.89;91.39
61478;BME280;47345;52.334;10.392;2023-03-04T06:31:27;101242.59;;;3.90;91.35
61478;BME280;47345;52.334;10.392;2023-03-04T06:33:58;101238.58;;;3.90;91.30
61478;BME280;47345;52.334;10.392;2023-03-04T06:36:28;101244.09;;;3.91;91.33
61478;BME280;47345;52.334;10.392;2023-03-04T06:38:58;101243.70;;;3.91;91.40
61478;BME280;47345;52.334;10.392;2023-03-04T06:41:31;101246.11;;;3.92;91.58
61478;BME280;47345;52.334;10.392;2023-03-04T06:44:02;101247.65;;;3.93;91.55
61478;BME280;47345;52.334;10.392;2023-03-04T06:46:34;101246.50;;;3.94;91.74
61478;BME280;47345;52.334;10.392;2023-03-04T06:49:06;101245.30;;;3.95;91.79
61478;BME280;47345;52.334;10.392;2023-03-04T06:51:36;101245.44;;;3.95;91.64
61478;BME280;47345;52.334;10.392;2023-03-04T06:54:07;101244.23;;;3.96;91.66
61478;BME280;47345;52.334;10.392;2023-03-04T06:56:38;101248.73;;;3.99;91.71
61478;BME280;47345;52.334;10.392;2023-03-04T06:59:09;101251.95;;;4.01;91.58
61478;BME280;47345;52.334;10.392;2023-03-04T07:01:39;101247.20;;;4.03;91.50
61478;BME280;47345;52.334;10.392;2023-03-04T07:04:09;101250.48;;;4.07;91.47
61478;BME280;47345;52.334;10.392;2023-03-04T07:06:42;101248.33;;;4.08;91.41
61478;BME280;47345;52.334;10.392;2023-03-04T07:09:12;101244.72;;;4.12;91.61
61478;BME280;47345;52.334;10.392;2023-03-04T07:11:43;101245.36;;;4.15;91.54
61478;BME280;47345;52.334;10.392;2023-03-04T07:14:14;101249.30;;;4.17;91.51
61478;BME280;47345;52.334;10.392;2023-03-04T07:16:44;101245.98;;;4.20;91.62
61478;BME280;47345;52.334;10.392;2023-03-04T07:19:15;101246.16;;;4.19;91.40
61478;BME280;47345;52.334;10.392;2023-03-04T07:21:46;101245.61;;;4.21;91.53
61478;BME280;47345;52.334;10.392;2023-03-04T07:24:16;101246.27;;;4.24;91.57
61478;BME280;47345;52.334;10.392;2023-03-04T07:26:47;101245.52;;;4.27;91.44
61478;BME280;47345;52.334;10.392;2023-03-04T07:29:18;101244.90;;;4.30;91.69
61478;BME280;47345;52.334;10.392;2023-03-04T07:31:48;101245.87;;;4.29;91.93
61478;BME280;47345;52.334;10.392;2023-03-04T07:34:21;101244.21;;;4.30;92.15
61478;BME280;47345;52.334;10.392;2023-03-04T07:36:53;101244.80;;;4.31;92.31
61478;BME280;47345;52.334;10.392;2023-03-04T07:39:24;101240.69;;;4.33;92.90
61478;BME280;47345;52.334;10.392;2023-03-04T07:41:54;101246.92;;;4.34;92.81
61478;BME280;47345;52.334;10.392;2023-03-04T07:44:25;101242.65;;;4.35;92.78
61478;BME280;47345;52.334;10.392;2023-03-04T07:46:55;101242.83;;;4.37;92.92
61478;BME280;47345;52.334;10.392;2023-03-04T07:49:26;101239.82;;;4.38;92.90
61478;BME280;47345;52.334;10.392;2023-03-04T07:51:56;101241.58;;;4.40;93.06
61478;BME280;47345;52.334;10.392;2023-03-04T07:54:27;101238.70;;;4.43;92.87
61478;BME280;47345;52.334;10.392;2023-03-04T07:56:57;101236.45;;;4.46;92.83
61478;BME280;47345;52.334;10.392;2023-03-04T07:59:28;101236.63;;;4.50;92.77
61478;BME280;47345;52.334;10.392;2023-03-04T08:01:59;101236.14;;;4.53;92.73
61478;BME280;47345;52.334;10.392;2023-03-04T08:04:29;101231.70;;;4.56;92.65
61478;BME280;47345;52.334;10.392;2023-03-04T08:07:00;101232.44;;;4.59;92.60
61478;BME280;47345;52.334;10.392;2023-03-04T08:09:32;101233.61;;;4.60;92.53
61478;BME280;47345;52.334;10.392;2023-03-04T08:12:02;101233.65;;;4.62;92.83
61478;BME280;47345;52.334;10.392;2023-03-04T08:14:33;101232.08;;;4.63;92.91
61478;BME280;47345;52.334;10.392;2023-03-04T08:17:04;101230.95;;;4.64;93.03
61478;BME280;47345;52.334;10.392;2023-03-04T08:19:34;101230.52;;;4.64;93.08
61478;BME280;47345;52.334;10.392;2023-03-04T08:22:05;101233.06;;;4.64;93.34
61478;BME280;47345;52.334;10.392;2023-03-04T08:24:35;101237.79;;;4.65;93.34
61478;BME280;47345;52.334;10.392;2023-03-04T08:27:06;101242.32;;;4.69;93.37
61478;BME280;47345;52.334;10.392;2023-03-04T08:29:37;101238.48;;;4.71;93.15
61478;BME280;47345;52.334;10.392;2023-03-04T08:32:07;101236.43;;;4.73;92.91
61478;BME280;47345;52.334;10.392;2023-03-04T08:34:39;101236.69;;;4.77;92.62
61478;BME280;47345;52.334;10.392;2023-03-04T08:37:09;101240.02;;;4.81;92.22
61478;BME280;47345;52.334;10.392;2023-03-04T08:39:40;101236.08;;;4.87;92.14
61478;BME280;47345;52.334;10.392;2023-03-04T08:42:10;101234.86;;;4.96;91.85
61478;BME280;47345;52.334;10.392;2023-03-04T08:44:41;101237.20;;;5.03;91.40
61478;BME280;47345;52.334;10.392;2023-03-04T08:47:11;101238.77;;;5.09;91.01
61478;BME280;47345;52.334;10.392;2023-03-04T08:49:42;101236.05;;;5.14;90.39
61478;BME280;47345;52.334;10.392;2023-03-04T08:52:13;101240.32;;;5.20;90.34
61478;BME280;47345;52.334;10.392;2023-03-04T08:54:43;101247.73;;;5.26;89.68
61478;BME280;47345;52.334;10.392;2023-03-04T08:57:13;101238.29;;;5.31;89.38
61478;BME280;47345;52.334;10.392;2023-03-04T08:59:44;101245.52;;;5.35;88.31
61478;BME280;47345;52.334;10.392;2023-03-04T09:02:15;101246.09;;;5.38;88.25
61478;BME280;47345;52.334;10.392;2023-03-04T09:04:45;101242.09;;;5.42;88.04
61478;BME280;47345;52.334;10.392;2023-03-04T09:07:16;101244.23;;;5.45;87.78
61478;BME280;47345;52.334;10.392;2023-03-04T09:09:46;101244.80;;;5.49;87.38
61478;BME280;47345;52.334;10.392;2023-03-04T09:12:17;101246.77;;;5.51;87.21
61478;BME280;47345;52.334;10.392;2023-03-04T09:14:48;101248.58;;;5.51;87.46
61478;BME280;47345;52.334;10.392;2023-03-04T09:17:36;101249.55;;;5.50;86.70
61478;BME280;47345;52.334;10.392;2023-03-04T09:20:10;101252.44;;;5.50;86.97
61478;BME280;47345;52.334;10.392;2023-03-04T09:22:41;101255.28;;;5.51;86.59
61478;BME280;47345;52.334;10.392;2023-03-04T09:25:14;101255.09;;;5.53;86.95
61478;BME280;47345;52.334;10.392;2023-03-04T09:27:44;101254.48;;;5.55;87.15
61478;BME280;47345;52.334;10.392;2023-03-04T09:30:15;101255.99;;;5.56;87.23
61478;BME280;47345;52.334;10.392;2023-03-04T09:32:46;101256.13;;;5.55;87.56
61478;BME280;47345;52.334;10.392;2023-03-04T09:35:17;101258.04;;;5.54;87.98
61478;BME280;47345;52.334;10.392;2023-03-04T09:37:47;101260.35;;;5.52;88.52
61478;BME280;47345;52.334;10.392;2023-03-04T09:40:21;101258.33;;;5.54;89.25
61478;BME280;47345;52.334;10.392;2023-03-04T09:42:54;101254.89;;;5.58;89.61
61478;BME280;47345;52.334;10.392;2023-03-04T09:45:31;101248.39;;;5.57;89.50
61478;BME280;47345;52.334;10.392;2023-03-04T09:48:03;101251.98;;;5.65;89.51
61478;BME280;47345;52.334;10.392;2023-03-04T09:50:47;101255.23;;;5.68;89.46
61478;BME280;47345;52.334;10.392;2023-03-04T09:53:24;101249.65;;;5.70;88.99
61478;BME280;47345;52.334;10.392;2023-03-04T09:55:59;101255.93;;;5.70;89.23
61478;BME280;47345;52.334;10.392;2023-03-04T09:58:41;101253.24;;;5.70;89.38
61478;BME280;47345;52.334;10.392;2023-03-04T10:01:19;101256.41;;;5.67;89.67
61478;BME280;47345;52.334;10.392;2023-03-04T10:03:53;101255.42;;;5.63;90.42
61478;BME280;47345;52.334;10.392;2023-03-04T10:06:35;101254.98;;;5.63;90.76
61478;BME280;47345;52.334;10.392;2023-03-04T10:09:11;101239.61;;;5.64;91.30
61478;BME280;47345;52.334;10.392;2023-03-04T10:11:45;101236.54;;;5.69;91.88
61478;BME280;47345;52.334;10.392;2023-03-04T10:14:32;101238.58;;;5.74;91.98
61478;BME280;47345;52.334;10.392;2023-03-04T10:17:07;101245.45;;;5.77;92.11
61478;BME280;47345;52.334;10.392;2023-03-04T10:19:51;101242.55;;;5.77;91.88
61478;BME280;47345;52.334;10.392;2023-03-04T10:22:30;101243.13;;;5.75;91.72
61478;BME280;47345;52.334;10.392;2023-03-04T10:25:14;101241.15;;;5.72;91.64
61478;BME280;47345;52.334;10.392;2023-03-04T10:27:49;101242.91;;;5.67;91.78
61478;BME280;47345;52.334;10.392;2023-03-04T10:30:29;101245.58;;;5.62;91.88
61478;BME280;47345;52.334;10.392;2023-03-04T10:33:14;101247.62;;;5.58;92.57
61478;BME280;47345;52.334;10.392;2023-03-04T10:35:47;101245.71;;;5.56;92.71
61478;BME280;47345;52.334;10.392;2023-03-04T10:38:21;101243.41;;;5.57;92.80
61478;BME280;47345;52.334;10.392;2023-03-04T10:40:52;101238.73;;;5.58;92.53
61478;BME280;47345;52.334;10.392;2023-03-04T10:43:23;101236.14;;;5.63;92.06
61478;BME280;47345;52.334;10.392;2023-03-04T10:45:56;101239.10;;;5.65;91.51
61478;BME280;47345;52.334;10.392;2023-03-04T10:48:29;101239.27;;;5.69;91.48
61478;BME280;47345;52.334;10.392;2023-03-04T10:51:15;101236.73;;;5.71;90.68
61478;BME280;47345;52.334;10.392;2023-03-04T10:53:49;101242.39;;;5.72;90.09
61478;BME280;47345;52.334;10.392;2023-03-04T10:56:36;101233.17;;;5.73;90.38
61478;BME280;47345;52.334;10.392;2023-03-04T10:59:31;101234.62;;;5.77;90.06
61478;BME280;47345;52.334;10.392;2023-03-04T11:02:15;101234.70;;;5.85;89.46
61478;BME280;47345;52.334;10.392;2023-03-04T11:04:51;101229.73;;;5.92;88.74
61478;BME280;47345;52.334;10.392;2023-03-04T11:07:24;101234.31;;;5.99;88.37
61478;BME280;47345;52.334;10.392;2023-03-04T11:09:54;101238.54;;;6.00;87.28
61478;BME280;47345;52.334;10.392;2023-03-04T11:12:35;101230.23;;;5.98;86.96
61478;BME280;47345;52.334;10.392;2023-03-04T11:15:18;101228.23;;;5.96;88.28
61478;BME280;47345;52.334;10.392;2023-03-04T11:17:54;101231.91;;;5.94;88.84
61478;BME280;47345;52.334;10.392;2023-03-04T11:20:33;101230.52;;;5.92;89.00
61478;BME280;47345;52.334;10.392;2023-03-04T11:23:09;101230.16;;;5.88;89.07
61478;BME280;47345;52.334;10.392;2023-03-04T11:25:45;101234.09;;;5.87;89.57
61478;BME280;47345;52.334;10.392;2023-03-04T11:28:21;101237.83;;;5.84;89.18
61478;BME280;47345;52.334;10.392;2023-03-04T11:30:54;101240.56;;;5.79;88.37
61478;BME280;47345;52.334;10.392;2023-03-04T11:33:31;101244.89;;;5.74;88.81
61478;BME280;47345;52.334;10.392;2023-03-04T11:36:18;101236.23;;;5.67;89.24
61478;BME280;47345;52.334;10.392;2023-03-04T11:38:51;101231.03;;;5.58;89.30
61478;BME280;47345;52.334;10.392;2023-03-04T11:41:27;101220.52;;;5.51;89.24
61478;BME280;47345;52.334;10.392;2023-03-04T11:43:58;101219.95;;;5.48;89.28
61478;BME280;47345;52.334;10.392;2023-03-04T11:46:43;101215.84;;;5.44;88.96
61478;BME280;47345;52.334;10.392;2023-03-04T11:49:32;101208.89;;;5.41;89.20
61478;BME280;47345;52.334;10.392;2023-03-04T11:52:17;101205.77;;;5.40;89.29
61478;BME280;47345;52.334;10.392;2023-03-04T11:55:03;101197.82;;;5.39;88.93
61478;BME280;47345;52.334;10.392;2023-03-04T11:57:45;101198.60;;;5.43;89.32
61478;BME280;47345;52.334;10.392;2023-03-04T12:00:35;101198.52;;;5.52;89.85
61478;BME280;47345;52.334;10.392;2023-03-04T12:03:33;101194.70;;;5.66;88.59
61478;BME280;47345;52.334;10.392;2023-03-04T12:06:14;101197.70;;;5.72;85.77
61478;BME280;47345;52.334;10.392;2023-03-04T12:08:54;101191.60;;;5.71;85.12
61478;BME280;47345;52.334;10.392;2023-03-04T12:11:37;101190.47;;;5.68;84.00
61478;BME280;47345;52.334;10.392;2023-03-04T12:14:21;101195.48;;;5.66;83.89
61478;BME280;47345;52.334;10.392;2023-03-04T12:17:23;101190.45;;;5.65;84.36
61478;BME280;47345;52.334;10.392;2023-03-04T12:20:13;101193.35;;;5.70;84.77
61478;BME280;47345;52.334;10.392;2023-03-04T12:22:48;101185.48;;;5.79;85.69
61478;BME280;47345;52.334;10.392;2023-03-04T12:25:28;101178.74;;;5.90;85.53
61478;BME280;47345;52.334;10.392;2023-03-04T12:28:14;101175.85;;;6.00;84.93
61478;BME280;47345;52.334;10.392;2023-03-04T12:31:01;101177.83;;;6.07;83.74
61478;BME280;47345;52.334;10.392;2023-03-04T12:33:43;101175.85;;;6.12;83.20
61478;BME280;47345;52.334;10.392;2023-03-04T12:36:22;101180.20;;;6.16;80.82
61478;BME280;47345;52.334;10.392;2023-03-04T12:39:20;101183.04;;;6.13;79.75
61478;BME280;47345;52.334;10.392;2023-03-04T12:42:02;101185.67;;;6.05;80.91
61478;BME280;47345;52.334;10.392;2023-03-04T12:44:40;101181.73;;;5.99;81.75
61478;BME280;47345;52.334;10.392;2023-03-04T12:47:20;101184.80;;;5.91;80.11
61478;BME280;47345;52.334;10.392;2023-03-04T12:50:16;101179.17;;;5.81;79.78
61478;BME280;47345;52.334;10.392;2023-03-04T12:52:54;101184.15;;;5.75;78.92
61478;BME280;47345;52.334;10.392;2023-03-04T12:55:37;101180.64;;;5.71;78.63
61478;BME280;47345;52.334;10.392;2023-03-04T12:58:14;101161.17;;;5.66;78.60
61478;BME280;47345;52.334;10.392;2023-03-04T13:00:53;101156.59;;;5.65;79.58
61478;BME280;47345;52.334;10.392;2023-03-04T13:03:31;101158.11;;;5.71;79.07
61478;BME280;47345;52.334;10.392;2023-03-04T13:06:17;101158.60;;;5.77;78.38
61478;BME280;47345;52.334;10.392;2023-03-04T13:09:00;101156.14;;;5.80;77.47
61478;BME280;47345;52.334;10.392;2023-03-04T13:11:54;101150.77;;;5.81;77.25
61478;BME280;47345;52.334;10.392;2023-03-04T13:14:33;101146.22;;;5.83;77.23
61478;BME280;47345;52.334;10.392;2023-03-04T13:17:38;101157.42;;;5.88;77.96
61478;BME280;47345;52.334;10.392;2023-03-04T13:20:22;101156.65;;;5.95;76.86
61478;BME280;47345;52.334;10.392;2023-03-04T13:22:55;101155.86;;;6.01;77.28